Time;durP1;ratioP1;P1;durP2;ratioP2;P2;SDS_P1;SDS_P2;PMS_P1;PMS_P2;Temp;Humidity;BMP_temperature;BMP_pressure;BME280_temperature;BME280_humidity;BME280_pressure;Samples;Min_cycle;Max_cycle;Signal;HPM_P1;HPM_P2
2022/07/19 00:01:39;;;;;;;;;5.00;4.00;;;;;30.15;25.59;100733.13;4985845;28;45438;-76
2022/07/19 00:04:05;;;;;;;;;6.00;5.00;;;;;30.03;25.69;100707.13;4983341;28;45503;-76
2022/07/19 00:06:30;;;;;;;;;4.00;4.00;;;;;30.02;25.23;100709.00;4986817;28;45492;-77
2022/07/19 00:08:56;;;;;;;;;4.00;4.00;;;;;30.03;25.57;100709.84;4983920;28;45397;-77
2022/07/19 00:11:21;;;;;;;;;3.25;3.25;;;;;30.00;25.75;100712.91;4986441;28;45477;-76
2022/07/19 00:13:47;;;;;;;;;4.50;4.50;;;;;29.94;25.74;100707.06;4986806;28;45530;-76
2022/07/19 00:16:12;;;;;;;;;4.75;4.75;;;;;29.87;25.62;100705.13;4983773;28;45688;-77
2022/07/19 00:18:37;;;;;;;;;4.25;4.25;;;;;29.87;26.13;100703.22;4987140;28;45587;-77
2022/07/19 00:21:03;;;;;;;;;1.75;1.50;;;;;29.60;25.52;100660.53;4984141;28;45466;-77
2022/07/19 00:23:28;;;;;;;;;5.25;4.75;;;;;29.87;25.90;100719.56;4985654;28;46180;-75
2022/07/19 00:25:54;;;;;;;;;3.50;3.00;;;;;29.82;26.41;100713.75;4986450;28;45510;-77
2022/07/19 00:28:19;;;;;;;;;3.75;3.75;;;;;29.67;26.20;100687.97;4983701;28;45512;-76
2022/07/19 00:30:44;;;;;;;;;4.00;4.00;;;;;29.74;25.96;100708.16;4986161;28;45504;-77
2022/07/19 00:33:10;;;;;;;;;3.25;3.25;;;;;29.71;25.86;100705.72;4985231;28;45509;-76
2022/07/19 00:35:37;;;;;;;;;5.25;5.00;;;;;29.71;25.91;100711.19;4983058;28;45491;-77
2022/07/19 00:38:10;;;;;;;;;4.50;4.00;;;;;29.65;25.55;100706.34;4986893;28;45388;-76
2022/07/19 00:40:37;;;;;;;;;3.25;3.25;;;;;29.62;25.87;100712.09;4984838;28;45333;-77
2022/07/19 00:43:03;;;;;;;;;4.25;3.50;;;;;29.58;25.63;100706.94;4985890;28;46370;-76
2022/07/19 00:45:28;;;;;;;;;4.50;3.25;;;;;29.44;25.76;100699.28;4988202;28;45374;-75
2022/07/19 00:47:54;;;;;;;;;4.25;4.25;;;;;29.52;26.24;100702.13;4987865;28;45605;-78
2022/07/19 00:50:20;;;;;;;;;4.25;4.00;;;;;29.39;25.93;100686.13;4984978;28;45607;-77
2022/07/19 00:52:49;;;;;;;;;4.50;4.50;;;;;29.44;26.37;100696.56;4981892;28;45607;-77
2022/07/19 00:55:18;;;;;;;;;4.00;4.00;;;;;29.35;26.07;100689.28;4965085;28;45466;-76
2022/07/19 00:57:46;;;;;;;;;4.25;3.00;;;;;29.29;26.52;100681.72;4983795;28;45375;-74
2022/07/19 01:00:14;;;;;;;;;4.75;4.50;;;;;29.33;26.01;100691.31;4981085;28;45405;-76
2022/07/19 01:02:40;;;;;;;;;5.00;3.50;;;;;29.23;26.58;100692.22;4980493;28;45451;-75
2022/07/19 01:05:07;;;;;;;;;4.25;4.00;;;;;29.28;26.14;100696.38;4969087;28;45410;-75
2022/07/19 01:07:34;;;;;;;;;3.25;3.25;;;;;29.24;25.99;100693.06;4985311;28;45382;-77
2022/07/19 01:10:01;;;;;;;;;3.75;3.25;;;;;29.22;26.39;100690.50;4985743;28;45373;-75
2022/07/19 01:12:28;;;;;;;;;4.00;2.75;;;;;29.20;26.28;100688.91;4966656;28;45745;-76
2022/07/19 01:14:57;;;;;;;;;6.00;3.00;;;;;29.20;26.56;100694.38;4991152;28;45519;-77
2022/07/19 01:17:23;;;;;;;;;2.75;2.75;;;;;29.09;26.52;100679.06;4984981;28;45318;-76
2022/07/19 01:19:48;;;;;;;;;4.00;4.00;;;;;29.12;26.55;100686.91;4984148;28;45369;-75
2022/07/19 01:22:14;;;;;;;;;3.25;3.00;;;;;29.09;26.60;100689.94;4982115;28;46003;-75
2022/07/19 01:24:39;;;;;;;;;4.25;3.25;;;;;29.03;26.76;100682.38;4983430;28;45377;-76
2022/07/19 01:27:05;;;;;;;;;2.25;2.25;;;;;28.99;26.60;100683.69;4985187;28;45689;-75
2022/07/19 01:29:31;;;;;;;;;2.00;2.00;;;;;29.02;27.33;100680.69;4985232;28;45404;-77
2022/07/19 01:31:57;;;;;;;;;3.75;2.50;;;;;29.00;27.04;100680.84;4981229;28;45525;-76
2022/07/19 01:34:22;;;;;;;;;3.50;2.75;;;;;28.97;27.14;100675.69;4986271;28;45427;-76
2022/07/19 01:36:47;;;;;;;;;4.25;3.50;;;;;28.91;27.32;100680.84;4982530;28;45610;-77
2022/07/19 01:39:13;;;;;;;;;4.00;3.25;;;;;28.95;27.43;100690.44;4965354;28;45557;-77
2022/07/19 01:41:38;;;;;;;;;3.00;2.75;;;;;28.92;27.74;100677.13;4986469;28;45918;-75
2022/07/19 01:44:04;;;;;;;;;3.00;3.00;;;;;28.86;27.62;100687.59;4984953;28;45644;-77
2022/07/19 01:46:29;;;;;;;;;5.00;5.00;;;;;28.84;27.43;100686.88;4983604;28;45495;-75
2022/07/19 01:48:56;;;;;;;;;3.75;3.25;;;;;28.78;27.81;100679.31;4987265;28;45506;-76
2022/07/19 01:51:22;;;;;;;;;4.00;4.00;;;;;28.77;27.63;100684.88;4960803;28;46279;-76
2022/07/19 01:53:48;;;;;;;;;5.00;5.00;;;;;28.72;27.55;100666.28;4987031;28;45550;-76
2022/07/19 01:56:13;;;;;;;;;4.00;4.00;;;;;28.72;27.34;100671.72;4966401;28;45377;-75
2022/07/19 01:58:38;;;;;;;;;5.25;3.50;;;;;28.71;27.54;100672.72;4984303;28;45388;-76
2022/07/19 02:01:04;;;;;;;;;6.00;3.50;;;;;28.68;28.03;100681.19;4985419;28;45420;-76
2022/07/19 02:03:31;;;;;;;;;3.00;3.00;;;;;28.65;28.29;100673.31;4984118;28;45464;-76
2022/07/19 02:05:56;;;;;;;;;5.00;3.00;;;;;28.58;28.23;100672.19;4988093;28;45512;-76
2022/07/19 02:08:22;;;;;;;;;5.25;4.25;;;;;28.56;28.71;100685.91;4986460;28;45536;-76
2022/07/19 02:10:47;;;;;;;;;4.25;4.25;;;;;28.51;28.23;100678.19;4982364;28;46011;-75
2022/07/19 02:13:12;;;;;;;;;5.75;5.75;;;;;28.46;28.25;100672.31;4985579;28;45603;-77
2022/07/19 02:15:38;;;;;;;;;7.50;4.50;;;;;28.37;28.12;100667.75;4983514;28;45588;-77
2022/07/19 02:18:03;;;;;;;;;5.75;4.00;;;;;28.31;28.63;100665.59;4964964;28;45484;-76
2022/07/19 02:20:29;;;;;;;;;4.00;3.50;;;;;28.31;28.19;100663.75;4982035;28;46112;-76
2022/07/19 02:22:54;;;;;;;;;4.00;4.00;;;;;28.26;28.69;100667.91;4982990;28;45516;-76
2022/07/19 02:25:21;;;;;;;;;5.00;4.00;;;;;28.12;28.36;100636.59;4980937;28;45437;-76
2022/07/19 02:27:46;;;;;;;;;4.00;4.00;;;;;28.27;28.72;100662.34;4981009;28;45426;-76
2022/07/19 02:30:13;;;;;;;;;3.00;3.00;;;;;28.25;28.25;100674.34;4982003;28;45527;-77
2022/07/19 02:32:39;;;;;;;;;4.00;4.00;;;;;28.23;28.90;100665.47;4983316;28;45496;-76
2022/07/19 02:35:06;;;;;;;;;4.00;4.00;;;;;28.17;28.57;100656.03;4981541;28;45297;-76
2022/07/19 02:37:31;;;;;;;;;5.00;3.75;;;;;28.14;28.64;100662.59;4983976;28;45479;-76
2022/07/19 02:39:57;;;;;;;;;3.00;3.00;;;;;27.98;28.63;100635.16;4984038;28;45436;-76
2022/07/19 02:42:22;;;;;;;;;4.00;3.00;;;;;28.00;28.79;100652.19;4984981;28;45704;-76
2022/07/19 02:44:47;;;;;;;;;3.00;3.00;;;;;28.02;28.98;100652.88;4986549;28;45445;-75
2022/07/19 02:47:13;;;;;;;;;3.00;3.00;;;;;27.87;28.76;100636.13;4966819;28;45439;-75
2022/07/19 02:49:38;;;;;;;;;4.00;4.00;;;;;27.76;29.20;100612.69;4986039;28;46103;-77
2022/07/19 02:52:04;;;;;;;;;5.25;2.50;;;;;27.91;29.68;100636.72;4983041;28;45557;-75
2022/07/19 02:54:29;;;;;;;;;4.50;3.75;;;;;27.89;29.32;100650.41;4984000;28;45419;-76
2022/07/19 02:56:54;;;;;;;;;6.00;6.00;;;;;27.86;29.23;100647.13;4982514;28;45503;-75
2022/07/19 02:59:21;;;;;;;;;5.50;3.00;;;;;27.81;29.17;100640.25;4982288;28;46122;-77
2022/07/19 03:01:46;;;;;;;;;4.00;2.50;;;;;27.82;29.21;100644.69;4967272;28;45507;-76
2022/07/19 03:04:12;;;;;;;;;4.50;4.50;;;;;27.52;29.53;100601.38;4983530;28;45396;-76
2022/07/19 03:06:37;;;;;;;;;4.00;4.00;;;;;27.71;29.67;100639.41;4966333;28;45386;-76
2022/07/19 03:09:02;;;;;;;;;3.25;3.25;;;;;27.69;29.71;100635.09;4982906;28;45527;-76
2022/07/19 03:11:28;;;;;;;;;4.25;2.75;;;;;27.61;29.40;100635.81;4984479;28;45601;-76
2022/07/19 03:13:53;;;;;;;;;6.50;3.50;;;;;27.55;29.70;100641.78;4983816;28;45305;-76
2022/07/19 03:16:19;;;;;;;;;5.75;3.75;;;;;27.52;30.47;100633.94;4981335;28;45562;-75
2022/07/19 03:18:44;;;;;;;;;4.00;4.00;;;;;27.51;29.98;100637.63;4962166;28;45627;-76
2022/07/19 03:21:09;;;;;;;;;3.75;3.75;;;;;27.51;29.99;100640.34;4981116;28;45432;-76
2022/07/19 03:23:36;;;;;;;;;4.00;3.00;;;;;27.50;30.04;100646.75;4984243;28;45436;-77
2022/07/19 03:26:04;;;;;;;;;4.00;4.00;;;;;27.38;30.36;100627.06;4990672;28;45550;-75
2022/07/19 03:28:29;;;;;;;;;4.75;4.75;;;;;27.40;30.34;100636.75;4980818;28;45435;-77
2022/07/19 03:30:54;;;;;;;;;4.00;4.00;;;;;27.46;30.42;100651.63;4984807;28;45431;-76
2022/07/19 03:33:20;;;;;;;;;4.25;4.25;;;;;27.40;30.52;100635.91;4990493;28;45428;-76
2022/07/19 03:35:46;;;;;;;;;3.75;3.75;;;;;27.31;30.58;100618.56;4995704;28;45642;-76
2022/07/19 03:38:12;;;;;;;;;3.50;3.50;;;;;27.41;30.05;100646.63;4971915;28;46116;-76
2022/07/19 03:40:39;;;;;;;;;4.50;4.50;;;;;27.38;30.20;100644.19;4982347;28;45396;-76
2022/07/19 03:43:05;;;;;;;;;5.25;3.25;;;;;27.37;30.54;100652.47;4988733;28;45451;-76
2022/07/19 03:45:30;;;;;;;;;4.00;4.00;;;;;27.33;30.52;100646.47;4991161;28;45519;-76
2022/07/19 03:47:55;;;;;;;;;5.50;4.25;;;;;27.30;30.52;100650.25;4988567;28;46216;-75
2022/07/19 03:50:21;;;;;;;;;5.25;4.25;;;;;27.29;31.05;100650.41;4976905;28;45503;-77
2022/07/19 03:52:46;;;;;;;;;4.50;3.00;;;;;27.22;31.01;100630.25;4976714;28;45445;-76
2022/07/19 03:55:11;;;;;;;;;4.75;4.00;;;;;27.26;30.76;100639.81;4979430;28;45467;-76
2022/07/19 03:57:37;;;;;;;;;7.25;5.00;;;;;27.18;30.75;100636.91;4984160;28;46071;-76
2022/07/19 04:00:04;;;;;;;;;5.00;5.00;;;;;27.18;31.23;100643.22;4990023;28;45534;-76
2022/07/19 04:02:29;;;;;;;;;5.00;4.25;;;;;27.16;30.70;100638.94;4984302;28;45413;-77
2022/07/19 04:04:58;;;;;;;;;6.50;5.00;;;;;27.15;31.05;100648.03;4994101;28;45491;-76
2022/07/19 04:07:23;;;;;;;;;6.00;6.00;;;;;27.04;31.61;100630.91;4987358;28;45558;-76
2022/07/19 04:09:48;;;;;;;;;5.50;5.00;;;;;27.15;31.54;100642.63;4992544;28;45602;-75
2022/07/19 04:12:14;;;;;;;;;5.50;5.00;;;;;27.05;31.23;100627.19;4996503;28;45472;-79
2022/07/19 04:14:39;;;;;;;;;6.75;4.75;;;;;27.13;31.30;100640.03;4996554;28;45636;-76
2022/07/19 04:17:04;;;;;;;;;6.50;4.50;;;;;27.07;31.21;100629.75;4992354;28;45492;-75
2022/07/19 04:19:31;;;;;;;;;5.25;5.00;;;;;27.13;31.69;100643.63;4999462;28;45324;-75
2022/07/19 04:21:56;;;;;;;;;5.00;4.00;;;;;27.10;31.61;100638.50;4995727;28;45550;-75
2022/07/19 04:24:22;;;;;;;;;4.00;4.00;;;;;27.16;31.23;100645.19;4988504;28;45417;-77
2022/07/19 04:26:47;;;;;;;;;7.75;5.00;;;;;27.10;30.79;100624.94;4993090;28;45541;-75
2022/07/19 04:29:12;;;;;;;;;5.00;4.75;;;;;27.18;31.23;100636.91;4985764;28;45699;-75
2022/07/19 04:31:38;;;;;;;;;5.00;5.00;;;;;27.13;30.99;100635.50;4994973;28;45393;-77
2022/07/19 04:34:03;;;;;;;;;5.00;5.00;;;;;27.16;30.80;100633.50;4993895;28;45452;-77
2022/07/19 04:36:28;;;;;;;;;5.25;4.25;;;;;27.38;30.62;100632.47;4993052;28;45410;-76
2022/07/19 04:38:54;;;;;;;;;4.25;4.25;;;;;27.55;30.64;100630.94;4983279;28;45613;-76
2022/07/19 04:41:19;;;;;;;;;4.75;4.75;;;;;27.51;30.38;100589.63;4964839;28;46064;-77
2022/07/19 04:43:44;;;;;;;;;5.75;5.75;;;;;28.03;30.89;100622.03;4992688;28;45641;-77
2022/07/19 04:46:10;;;;;;;;;6.75;5.00;;;;;28.24;29.86;100624.59;4968150;28;46604;-77
2022/07/19 04:48:35;;;;;;;;;5.00;5.00;;;;;28.49;29.77;100631.25;4988766;28;45546;-77
2022/07/19 04:51:00;;;;;;;;;6.50;6.00;;;;;28.83;29.09;100624.47;4987539;28;45832;-75
2022/07/19 04:53:26;;;;;;;;;6.00;5.50;;;;;29.15;28.80;100628.63;4990756;28;45607;-76
2022/07/19 04:55:51;;;;;;;;;10.25;6.50;;;;;29.41;28.17;100609.75;4986346;28;46358;-77
2022/07/19 04:58:16;;;;;;;;;5.75;5.75;;;;;29.88;28.88;100625.09;4986628;28;45622;-77
2022/07/19 05:00:42;;;;;;;;;5.00;4.50;;;;;30.20;27.47;100620.94;4991032;28;45417;-77
2022/07/19 05:03:07;;;;;;;;;7.25;5.50;;;;;30.48;27.18;100617.13;4981070;28;45328;-76
2022/07/19 05:05:33;;;;;;;;;6.00;5.75;;;;;30.87;27.29;100612.25;4986637;28;45522;-76
2022/07/19 05:07:58;;;;;;;;;7.00;6.50;;;;;31.19;26.12;100608.84;4987498;28;45633;-76
2022/07/19 05:10:24;;;;;;;;;7.00;7.00;;;;;31.53;25.89;100616.13;4993382;28;45716;-76
2022/07/19 05:12:50;;;;;;;;;7.00;5.75;;;;;31.92;25.65;100618.28;4989997;28;45626;-76
2022/07/19 05:15:15;;;;;;;;;7.00;6.00;;;;;32.27;25.70;100608.06;4966060;28;46216;-78
2022/07/19 05:17:41;;;;;;;;;5.75;5.75;;;;;32.73;24.45;100608.34;4986313;28;45490;-77
2022/07/19 05:20:10;;;;;;;;;7.75;7.00;;;;;32.91;24.61;100549.81;4979069;28;45531;-76
2022/07/19 05:22:35;;;;;;;;;6.50;6.50;;;;;33.69;23.40;100602.78;4985398;28;45527;-77
2022/07/19 05:25:01;;;;;;;;;4.75;4.75;;;;;34.10;23.12;100618.13;4990123;28;45530;-76
2022/07/19 05:27:26;;;;;;;;;8.00;6.25;;;;;34.42;22.48;100595.06;4988193;28;45517;-72
2022/07/19 05:29:52;;;;;;;;;7.00;6.00;;;;;34.81;22.31;100610.44;4988783;28;45490;-73
2022/07/19 05:32:18;;;;;;;;;7.50;6.00;;;;;35.24;22.35;100609.75;4983739;28;45777;-73
2022/07/19 05:34:44;;;;;;;;;6.50;5.25;;;;;35.55;21.48;100601.28;4989680;28;45467;-72
2022/07/19 05:37:10;;;;;;;;;5.25;5.25;;;;;36.04;21.87;100605.16;4992185;28;45312;-73
2022/07/19 05:39:35;;;;;;;;;7.75;7.75;;;;;36.42;21.56;100599.38;4992023;28;45650;-78
2022/07/19 05:42:01;;;;;;;;;6.75;6.75;;;;;36.70;20.82;100583.91;4987085;28;45430;-75
2022/07/19 05:44:26;;;;;;;;;7.00;7.00;;;;;37.17;20.28;100596.88;4991865;28;45540;-82
2022/07/19 05:46:52;;;;;;;;;5.75;5.00;;;;;37.38;20.38;100581.28;4989079;28;45519;-77
2022/07/19 05:49:17;;;;;;;;;6.75;6.75;;;;;37.89;19.67;100598.41;4988241;28;45495;-77
2022/07/19 05:51:43;;;;;;;;;6.75;6.75;;;;;38.17;19.93;100600.94;4988451;28;45521;-76
2022/07/19 05:54:09;;;;;;;;;8.25;8.25;;;;;38.45;19.36;100592.47;4990595;28;46383;-77
2022/07/19 05:56:34;;;;;;;;;8.00;6.25;;;;;38.81;19.05;100596.69;4992602;28;45529;-78
2022/07/19 05:59:01;;;;;;;;;6.00;5.25;;;;;39.05;19.16;100586.84;4992325;28;45333;-76
2022/07/19 06:01:26;;;;;;;;;10.25;7.00;;;;;39.26;18.61;100593.97;4990085;28;45572;-75
2022/07/19 06:03:55;;;;;;;;;8.00;8.00;;;;;39.73;18.15;100582.69;4985231;28;46792;-78
2022/07/19 06:06:22;;;;;;;;;5.50;5.50;;;;;40.12;17.83;100586.25;4988858;28;45535;-77
2022/07/19 06:08:47;;;;;;;;;6.00;6.00;;;;;40.50;18.47;100576.97;4995967;28;45415;-80
2022/07/19 06:11:15;;;;;;;;;6.25;5.25;;;;;40.88;16.85;100588.06;4990873;28;45468;-78
2022/07/19 06:13:41;;;;;;;;;7.75;7.25;;;;;41.03;16.55;100592.16;4988552;28;45497;-77
2022/07/19 06:16:07;;;;;;;;;8.00;7.75;;;;;41.31;16.50;100576.06;4986660;28;45428;-77
2022/07/19 06:18:36;;;;;;;;;6.50;6.50;;;;;41.67;16.60;100586.19;4985112;28;45548;-76
2022/07/19 06:21:14;;;;;;;;;8.00;8.00;;;;;41.99;15.87;100585.91;4963531;28;45612;-76
2022/07/19 06:23:41;;;;;;;;;7.00;7.00;;;;;42.21;15.56;100586.22;4983671;28;45582;-77
2022/07/19 06:26:08;;;;;;;;;7.50;7.50;;;;;42.15;15.50;100570.53;4979435;28;45582;-76
2022/07/19 06:28:34;;;;;;;;;6.75;6.25;;;;;42.37;15.33;100572.69;4985056;28;45559;-77
2022/07/19 06:30:59;;;;;;;;;8.25;8.25;;;;;42.80;14.58;100576.19;4972873;28;45400;-76
2022/07/19 06:33:25;;;;;;;;;6.75;6.75;;;;;42.94;15.96;100567.31;4982587;28;45508;-77
2022/07/19 06:35:50;;;;;;;;;8.50;6.00;;;;;43.43;15.40;100552.22;4979908;28;45393;-76
2022/07/19 06:38:16;;;;;;;;;6.00;5.75;;;;;43.83;15.95;100565.16;4994467;28;45461;-76
2022/07/19 06:40:41;;;;;;;;;5.00;5.00;;;;;44.15;14.15;100553.44;4963387;28;45540;-76
2022/07/19 06:43:07;;;;;;;;;6.75;6.25;;;;;44.70;14.38;100555.41;4988890;28;46421;-78
2022/07/19 06:45:33;;;;;;;;;5.50;5.50;;;;;44.86;13.92;100556.41;4979586;28;45539;-77
2022/07/19 06:47:58;;;;;;;;;4.00;4.00;;;;;44.55;13.79;100546.78;4985204;28;45459;-77
2022/07/19 06:50:24;;;;;;;;;8.50;5.50;;;;;44.18;13.81;100555.69;4985132;28;45417;-77
2022/07/19 06:52:49;;;;;;;;;8.00;7.00;;;;;44.21;14.47;100548.78;4970142;28;46172;-76
2022/07/19 06:55:15;;;;;;;;;7.00;7.00;;;;;44.20;14.81;100545.13;4990405;28;45452;-76
2022/07/19 06:57:40;;;;;;;;;7.25;5.75;;;;;44.35;14.76;100553.78;4983799;28;45474;-76
2022/07/19 07:00:08;;;;;;;;;9.75;7.25;;;;;44.71;14.23;100559.84;4992352;28;45567;-77
2022/07/19 07:02:35;;;;;;;;;7.00;7.00;;;;;44.79;13.75;100557.72;4971887;28;46085;-76
2022/07/19 07:05:01;;;;;;;;;8.50;8.00;;;;;44.77;14.10;100557.13;4987605;28;45432;-76
2022/07/19 07:07:26;;;;;;;;;10.25;7.50;;;;;44.99;13.83;100551.53;4990674;28;46014;-77
2022/07/19 07:09:51;;;;;;;;;8.75;7.50;;;;;45.10;13.27;100552.53;4993410;28;45488;-77
2022/07/19 07:12:17;;;;;;;;;8.25;8.25;;;;;45.33;13.18;100549.44;4983874;28;45390;-75
2022/07/19 07:14:42;;;;;;;;;9.25;7.50;;;;;45.37;13.75;100549.75;4982005;28;45388;-77
2022/07/19 07:17:07;;;;;;;;;7.75;6.50;;;;;45.71;13.80;100542.00;4986213;28;45455;-76
2022/07/19 07:19:34;;;;;;;;;4.00;4.00;;;;;46.14;14.17;100550.44;4987696;28;45603;-77
2022/07/19 07:22:01;;;;;;;;;9.00;7.00;;;;;46.47;13.62;100549.28;4989201;28;45543;-78
2022/07/19 07:24:27;;;;;;;;;6.00;6.00;;;;;46.77;12.53;100547.78;4990221;28;45375;-78
2022/07/19 07:26:52;;;;;;;;;10.00;7.25;;;;;46.96;12.74;100545.34;4987034;28;45453;-77
2022/07/19 07:29:18;;;;;;;;;6.00;6.00;;;;;46.96;12.67;100538.94;4980707;28;45560;-77
2022/07/19 07:31:43;;;;;;;;;10.00;9.00;;;;;47.02;13.25;100534.19;4967946;28;46275;-78
2022/07/19 07:34:09;;;;;;;;;5.25;5.25;;;;;47.15;12.59;100517.72;4988097;28;45506;-78
2022/07/19 07:36:34;;;;;;;;;9.00;6.00;;;;;47.41;12.71;100526.19;4988434;28;45502;-76
2022/07/19 07:39:00;;;;;;;;;7.50;7.50;;;;;47.82;12.96;100525.38;4991691;28;45361;-77
2022/07/19 07:41:25;;;;;;;;;7.00;7.00;;;;;48.12;12.44;100532.91;4987752;28;45350;-76
2022/07/19 07:43:50;;;;;;;;;9.75;8.50;;;;;48.45;12.26;100525.00;4982487;28;45462;-77
2022/07/19 07:46:16;;;;;;;;;6.75;6.75;;;;;48.78;12.39;100521.78;4983468;28;45537;-76
2022/07/19 07:48:42;;;;;;;;;8.67;7.33;;;;;48.78;12.70;100510.56;4990380;28;45443;-75
2022/07/19 07:51:08;;;;;;;;;7.50;7.50;;;;;49.04;11.86;100508.47;4984369;28;46391;-77
2022/07/19 07:53:33;;;;;;;;;11.00;10.00;;;;;49.21;11.46;100500.50;4987656;28;45504;-76
2022/07/19 07:55:59;;;;;;;;;10.50;9.25;;;;;49.01;11.92;100493.06;4986439;28;45701;-76
2022/07/19 07:58:24;;;;;;;;;8.33;8.33;;;;;49.18;12.64;100509.50;4985262;28;45533;-76
2022/07/19 08:00:49;;;;;;;;;8.00;8.00;;;;;49.29;11.33;100503.84;4985438;28;46456;-77
2022/07/19 08:03:16;;;;;;;;;14.00;8.67;;;;;48.97;11.44;100497.56;4969439;28;45471;-77
2022/07/19 08:05:43;;;;;;;;;9.67;9.00;;;;;48.82;11.81;100501.31;4982974;28;45424;-78
2022/07/19 08:08:09;;;;;;;;;12.67;11.00;;;;;49.04;12.18;100498.09;4990080;28;45641;-77
2022/07/19 08:10:35;;;;;;;;;10.67;9.00;;;;;48.96;12.05;100489.44;4985087;28;46259;-78
2022/07/19 08:13:01;;;;;;;;;10.67;10.00;;;;;48.88;12.01;100497.38;4986553;28;45421;-76
2022/07/19 08:15:26;;;;;;;;;8.67;8.67;;;;;48.72;11.12;100478.94;4982767;28;45593;-76
2022/07/19 08:17:53;;;;;;;;;9.00;7.00;;;;;48.65;11.78;100484.00;4983761;28;45397;-77
2022/07/19 08:20:19;;;;;;;;;7.75;7.75;;;;;48.72;11.82;100490.97;4984640;28;46039;-76
2022/07/19 08:22:45;;;;;;;;;12.00;10.00;;;;;48.96;11.83;100484.69;4984692;28;45480;-75
2022/07/19 08:25:14;;;;;;;;;9.00;9.00;;;;;48.97;11.42;100479.91;4980946;28;45452;-75
2022/07/19 08:27:40;;;;;;;;;10.00;9.00;;;;;48.94;11.78;100481.31;4988438;28;45583;-77
2022/07/19 08:30:06;;;;;;;;;8.50;7.50;;;;;49.02;10.88;100469.50;4986987;28;45529;-76
2022/07/19 08:32:31;;;;;;;;;9.67;8.00;;;;;48.75;11.46;100478.34;4987968;28;45659;-75
2022/07/19 08:34:56;;;;;;;;;8.33;8.00;;;;;48.35;11.58;100480.16;4979809;28;45666;-76
2022/07/19 08:37:22;;;;;;;;;6.67;6.00;;;;;48.27;11.40;100477.97;4984779;28;45728;-77
2022/07/19 08:39:47;;;;;;;;;10.33;9.67;;;;;48.39;11.49;100478.50;4984372;28;45527;-77
2022/07/19 08:42:16;;;;;;;;;8.00;8.00;;;;;48.66;13.22;100469.69;4990004;28;45471;-77
2022/07/19 08:44:42;;;;;;;;;11.00;9.67;;;;;48.84;11.29;100454.22;4986182;28;45530;-77
2022/07/19 08:47:09;;;;;;;;;8.00;8.00;;;;;48.69;11.18;100462.69;4984256;28;45831;-78
2022/07/19 08:49:35;;;;;;;;;9.25;9.25;;;;;48.54;11.28;100461.63;4993098;28;46058;-76
2022/07/19 08:52:01;;;;;;;;;6.00;6.00;;;;;48.62;11.14;100462.16;4986515;28;45444;-77
2022/07/19 08:54:26;;;;;;;;;8.75;8.75;;;;;48.84;13.26;100459.81;4980782;28;45483;-77
2022/07/19 08:59:36;;;;;;;;;9.00;9.00;;;;;49.31;11.70;100465.13;4988508;28;45862;-75
2022/07/19 09:02:01;;;;;;;;;8.33;8.33;;;;;49.34;10.58;100456.13;4991122;28;45388;-76
2022/07/19 09:04:30;;;;;;;;;7.33;7.33;;;;;49.20;10.63;100450.34;4993185;28;45594;-75
2022/07/19 09:06:57;;;;;;;;;8.33;7.67;;;;;49.23;10.46;100444.13;4986238;28;45794;-77
2022/07/19 09:09:32;;;;;;;;;14.00;9.00;;;;;49.33;10.37;100444.06;4981423;28;46137;-78
2022/07/19 09:12:00;;;;;;;;;9.00;7.67;;;;;49.45;10.04;100446.47;4984156;28;45409;-76
2022/07/19 09:14:31;;;;;;;;;10.00;8.00;;;;;49.31;9.66;100442.69;4985616;28;45553;-77
2022/07/19 09:17:02;;;;;;;;;7.67;7.67;;;;;49.70;11.47;100442.63;4968909;28;45756;-76
2022/07/19 09:19:33;;;;;;;;;9.00;8.00;;;;;49.67;10.17;100437.63;4983584;28;46480;-76
2022/07/19 09:22:12;;;;;;;;;9.33;8.00;;;;;49.92;9.69;100450.53;4955500;28;45941;-76
2022/07/19 09:24:40;;;;;;;;;8.00;6.33;;;;;49.41;10.31;100439.78;4986158;28;45510;-76
2022/07/19 09:27:09;;;;;;;;;9.00;9.00;;;;;49.61;10.93;100431.22;4985634;28;45491;-77
2022/07/19 09:29:39;;;;;;;;;6.00;6.00;;;;;49.77;11.28;100436.66;4982594;28;45486;-76
2022/07/19 09:32:20;;;;;;;;;8.00;7.00;;;;;49.85;10.03;100402.31;4986566;28;45436;-76
2022/07/19 09:34:50;;;;;;;;;7.33;7.33;;;;;50.14;10.99;100418.28;4984090;28;45644;-76
2022/07/19 09:37:19;;;;;;;;;6.67;6.67;;;;;50.15;10.32;100419.94;4988985;28;45412;-76
2022/07/19 09:39:47;;;;;;;;;5.67;5.67;;;;;50.41;9.94;100417.66;4985282;28;45411;-77
2022/07/19 09:42:15;;;;;;;;;7.33;6.67;;;;;50.31;9.84;100415.03;4981153;28;45499;-78
2022/07/19 09:44:42;;;;;;;;;7.00;7.00;;;;;50.14;10.70;100415.47;4976507;28;45551;-75
2022/07/19 09:47:07;;;;;;;;;6.33;6.33;;;;;50.23;9.75;100416.50;4982739;28;45460;-76
2022/07/19 09:49:32;;;;;;;;;7.00;7.00;;;;;50.32;10.12;100402.63;4984396;28;46191;-76
2022/07/19 09:51:58;;;;;;;;;8.00;7.50;;;;;50.11;8.80;100399.22;4982239;28;45409;-77
2022/07/19 09:54:26;;;;;;;;;6.00;5.00;;;;;49.92;9.37;100400.00;4985169;28;45557;-77
2022/07/19 09:56:53;;;;;;;;;5.67;5.67;;;;;49.97;9.13;100396.31;4989214;28;45441;-76
2022/07/19 09:59:20;;;;;;;;;7.00;7.00;;;;;49.89;8.98;100386.56;4982049;28;45578;-78
2022/07/19 10:01:48;;;;;;;;;6.67;6.67;;;;;49.80;9.39;100396.75;4980588;28;45559;-76
2022/07/19 10:04:18;;;;;;;;;6.25;6.25;;;;;49.77;10.02;100383.31;4990650;28;45664;-75
2022/07/19 10:06:44;;;;;;;;;4.67;4.67;;;;;49.93;10.83;100396.09;4989194;28;45615;-76
2022/07/19 10:09:12;;;;;;;;;10.00;7.33;;;;;50.13;9.34;100385.72;4982188;28;46392;-77
2022/07/19 10:11:38;;;;;;;;;6.33;6.33;;;;;49.95;10.27;100354.50;4978492;28;45582;-73
2022/07/19 10:14:04;;;;;;;;;8.67;7.00;;;;;49.82;10.14;100377.63;4983058;28;45377;-78
2022/07/19 10:16:48;;;;;;;;;7.00;7.00;;;;;49.79;10.56;100375.44;4983864;28;45603;-77
2022/07/19 10:19:42;;;;;;;;;6.00;6.00;;;;;49.83;9.30;100370.06;4983558;28;47044;-76
2022/07/19 10:22:13;;;;;;;;;6.00;6.00;;;;;49.16;9.20;100351.94;4979997;28;45498;-76
2022/07/19 10:24:53;;;;;;;;;7.00;7.00;;;;;48.64;9.47;100351.47;4984775;28;45495;-77
2022/07/19 10:27:40;;;;;;;;;7.33;7.33;;;;;48.53;9.69;100347.06;4985818;28;45518;-76
2022/07/19 10:30:16;;;;;;;;;7.00;6.00;;;;;48.45;10.08;100340.13;4987389;28;46341;-81
2022/07/19 10:32:45;;;;;;;;;10.00;9.00;;;;;48.49;9.88;100334.78;4991263;28;45380;-78
2022/07/19 10:35:16;;;;;;;;;8.00;7.00;;;;;48.71;9.26;100334.34;4990378;28;45592;-77
2022/07/19 10:37:43;;;;;;;;;7.00;6.00;;;;;48.77;8.98;100321.94;4992461;28;45621;-77
2022/07/19 10:40:09;;;;;;;;;5.33;5.33;;;;;48.91;10.16;100319.34;4963350;28;45516;-76
2022/07/19 10:42:35;;;;;;;;;8.33;6.00;;;;;48.99;9.62;100303.88;4973429;28;45652;-77
2022/07/19 10:45:01;;;;;;;;;10.00;8.67;;;;;49.22;9.13;100333.94;4989185;28;46689;-80
2022/07/19 10:47:34;;;;;;;;;10.00;9.33;;;;;49.17;9.29;100317.19;4990228;28;45525;-77
2022/07/19 10:50:07;;;;;;;;;8.00;8.00;;;;;48.55;8.61;100312.03;4992335;28;45947;-76
2022/07/19 10:52:34;;;;;;;;;6.00;6.00;;;;;48.58;8.61;100309.78;4988339;28;45559;-78
2022/07/19 10:55:18;;;;;;;;;6.33;5.33;;;;;48.38;8.54;100308.78;4991282;28;45728;-79
2022/07/19 10:57:45;;;;;;;;;7.00;7.00;;;;;48.37;8.47;100307.09;4990384;28;45463;-78
2022/07/19 11:00:20;;;;;;;;;7.00;7.00;;;;;48.42;9.17;100297.81;4986685;28;46355;-79
2022/07/19 11:02:46;;;;;;;;;7.00;6.33;;;;;48.36;8.56;100303.47;4989309;28;45537;-79
2022/07/19 11:05:25;;;;;;;;;4.67;3.33;;;;;48.55;9.06;100300.00;4990025;28;45638;-78
2022/07/19 11:07:53;;;;;;;;;8.00;7.00;;;;;48.64;8.45;100298.25;4987243;28;46369;-78
2022/07/19 11:10:30;;;;;;;;;6.50;6.00;;;;;48.82;8.77;100276.25;4986111;28;46496;-79
2022/07/19 11:12:57;;;;;;;;;9.00;7.50;;;;;48.91;8.50;100288.50;4987140;28;45609;-78
2022/07/19 11:15:23;;;;;;;;;6.25;6.25;;;;;48.79;8.60;100276.81;4983508;28;45623;-78
2022/07/19 11:17:53;;;;;;;;;5.33;5.33;;;;;48.81;9.51;100278.25;4964463;28;45555;-78
2022/07/19 11:20:22;;;;;;;;;2.00;2.00;;;;;48.46;8.71;100291.38;4987663;28;45567;-79
2022/07/19 11:22:48;;;;;;;;;6.33;6.33;;;;;48.20;9.17;100255.13;4987358;28;45740;-78
2022/07/19 11:25:16;;;;;;;;;7.33;6.33;;;;;48.41;9.70;100285.78;4987591;28;45662;-78
2022/07/19 11:27:47;;;;;;;;;6.33;6.33;;;;;48.28;9.73;100272.44;4988333;28;45541;-79